Time;durP1;ratioP1;P1;durP2;ratioP2;P2;SDS_P1;SDS_P2;PMS_P1;PMS_P2;Temp;Humidity;BMP_temperature;BMP_pressure;BME280_temperature;BME280_humidity;BME280_pressure;Samples;Min_cycle;Max_cycle;Signal;HPM_P1;HPM_P2
2023/06/22 00:00:52;;;;;;;8.93;3.90;;;;;;;20.67;76.87;96444.72;5051850;28;20043;-74
2023/06/22 00:03:19;;;;;;;7.35;3.80;;;;;;;20.66;76.72;96434.84;5051436;28;20043;-75
2023/06/22 00:05:45;;;;;;;9.63;4.40;;;;;;;20.71;76.90;96426.19;5052086;28;20040;-75
2023/06/22 00:08:12;;;;;;;10.00;4.25;;;;;;;20.74;76.79;96406.06;5050944;28;20048;-75
2023/06/22 00:10:39;;;;;;;10.13;4.00;;;;;;;20.78;76.81;96390.31;5051878;28;20049;-75
2023/06/22 00:13:08;;;;;;;7.80;3.75;;;;;;;20.85;76.90;96393.13;5051323;28;20044;-75
2023/06/22 00:15:36;;;;;;;11.02;4.38;;;;;;;20.67;77.15;96379.13;5051315;28;20079;-75
2023/06/22 00:18:03;;;;;;;9.27;3.83;;;;;;;20.64;76.91;96362.50;5051571;28;20045;-75
2023/06/22 00:20:30;;;;;;;8.15;4.05;;;;;;;20.68;76.82;96360.56;5053673;28;20056;-75
2023/06/22 00:22:57;;;;;;;7.20;4.05;;;;;;;20.72;76.72;96358.59;5055063;28;20120;-75
2023/06/22 00:25:24;;;;;;;11.50;4.05;;;;;;;20.63;76.59;96355.41;5055706;28;20044;-75
2023/06/22 00:27:51;;;;;;;9.55;4.20;;;;;;;20.50;76.28;96347.38;5051082;28;20037;-75
2023/06/22 00:30:19;;;;;;;7.60;4.10;;;;;;;20.56;76.42;96343.06;5057616;28;20049;-75
2023/06/22 00:32:46;;;;;;;7.80;3.85;;;;;;;20.65;77.04;96344.72;5061225;28;20041;-75
2023/06/22 00:35:13;;;;;;;11.15;4.55;;;;;;;20.55;76.90;96338.72;5056382;28;20041;-75
2023/06/22 00:37:42;;;;;;;7.65;4.10;;;;;;;20.52;76.33;96335.94;5056001;28;20053;-75
2023/06/22 00:40:11;;;;;;;8.80;3.97;;;;;;;20.59;76.57;96344.28;5055904;28;20071;-75
2023/06/22 00:42:38;;;;;;;9.85;3.97;;;;;;;20.56;76.48;96343.06;5056659;28;20049;-75
2023/06/22 00:45:06;;;;;;;7.85;3.65;;;;;;;20.59;76.33;96341.53;5065001;28;20086;-75
2023/06/22 00:47:35;;;;;;;6.75;4.18;;;;;;;20.45;76.96;96336.63;5056566;28;20052;-75
2023/06/22 00:50:02;;;;;;;8.07;4.20;;;;;;;20.37;77.29;96346.06;5056716;28;20037;-75
2023/06/22 00:52:30;;;;;;;9.90;4.35;;;;;;;20.26;78.19;96334.13;5054419;28;20037;-75
2023/06/22 00:54:57;;;;;;;9.40;4.03;;;;;;;20.15;78.84;96333.19;5050447;28;20417;-75
2023/06/22 00:57:27;;;;;;;8.32;4.07;;;;;;;20.22;78.61;96327.75;5042773;28;20045;-75
2023/06/22 00:59:54;;;;;;;8.02;4.43;;;;;;;19.95;80.01;96336.19;5049971;28;20048;-75
2023/06/22 01:02:21;;;;;;;10.50;4.10;;;;;;;19.95;79.99;96338.94;5050444;28;20440;-75
2023/06/22 01:04:49;;;;;;;7.30;4.10;;;;;;;20.02;79.62;96339.00;5050541;28;20045;-75
2023/06/22 01:07:24;;;;;;;10.77;4.53;;;;;;;20.19;79.58;96345.09;5050160;28;20064;-75
2023/06/22 01:09:58;;;;;;;11.20;4.05;;;;;;;20.24;79.18;96342.75;5050006;28;20041;-75
2023/06/22 01:12:26;;;;;;;7.15;4.10;;;;;;;20.26;78.64;96345.19;5049615;28;20049;-75
2023/06/22 01:14:59;;;;;;;9.50;4.10;;;;;;;20.13;78.99;96349.38;5050787;28;20049;-75
2023/06/22 01:17:27;;;;;;;9.27;4.70;;;;;;;20.13;78.95;96347.41;5050364;28;20038;-75
2023/06/22 01:19:56;;;;;;;8.00;3.60;;;;;;;20.28;78.24;96334.50;5050616;28;20044;-75
2023/06/22 01:22:25;;;;;;;7.82;4.18;;;;;;;20.22;78.88;96334.06;5050051;28;20045;-75
2023/06/22 01:25:06;;;;;;;10.25;3.92;;;;;;;20.33;78.42;96339.69;5049801;28;20045;-75
2023/06/22 01:27:41;;;;;;;10.88;4.20;;;;;;;20.29;78.34;96344.38;5049337;28;20408;-75
2023/06/22 01:30:11;;;;;;;9.30;4.40;;;;;;;20.04;79.41;96322.81;5049200;28;20041;-75
2023/06/22 01:32:40;;;;;;;10.05;4.30;;;;;;;19.89;79.94;96320.31;5048774;28;20040;-75
2023/06/22 01:35:08;;;;;;;10.35;4.05;;;;;;;20.07;79.71;96322.09;5053449;28;20132;-76
2023/06/22 01:37:37;;;;;;;8.25;4.05;;;;;;;20.13;79.29;96313.44;5049166;28;20060;-75
2023/06/22 01:40:06;;;;;;;7.60;3.92;;;;;;;20.11;79.58;96304.75;5049357;28;20493;-76
2023/06/22 01:42:33;;;;;;;10.98;4.10;;;;;;;19.84;79.93;96313.19;5050041;28;20044;-75
2023/06/22 01:45:01;;;;;;;8.63;4.50;;;;;;;19.76;80.79;96305.97;5049893;28;20127;-75
2023/06/22 01:47:29;;;;;;;15.38;5.03;;;;;;;19.83;80.55;96310.78;5049503;28;20060;-75
2023/06/22 01:49:57;;;;;;;10.00;4.55;;;;;;;19.93;80.70;96305.34;5049557;28;20037;-75
2023/06/22 01:52:23;;;;;;;11.38;4.45;;;;;;;19.93;80.25;96305.34;5049503;28;20049;-75
2023/06/22 01:54:50;;;;;;;12.05;5.18;;;;;;;20.00;79.64;96305.44;5050005;28;20053;-75
2023/06/22 01:57:16;;;;;;;9.20;4.22;;;;;;;19.99;80.11;96305.78;5049696;28;20056;-75
2023/06/22 01:59:49;;;;;;;10.27;4.75;;;;;;;19.99;79.72;96309.38;5057014;28;20044;-75
2023/06/22 02:02:20;;;;;;;8.48;4.03;;;;;;;20.00;79.89;96316.50;5049364;28;20229;-75
2023/06/22 02:04:52;;;;;;;8.23;4.38;;;;;;;19.84;80.42;96312.34;5049898;28;20047;-75
2023/06/22 02:07:21;;;;;;;8.40;4.00;;;;;;;19.88;80.53;96308.47;5049022;28;20048;-75
2023/06/22 02:09:52;;;;;;;8.18;4.20;;;;;;;19.89;80.40;96310.06;5044336;28;20036;-75
2023/06/22 02:12:23;;;;;;;7.28;4.40;;;;;;;20.00;80.32;96308.19;5049108;28;20142;-75
2023/06/22 02:14:51;;;;;;;8.32;4.78;;;;;;;19.85;80.45;96309.22;5049800;28;20052;-74
2023/06/22 02:17:18;;;;;;;12.80;5.10;;;;;;;19.79;81.08;96305.22;5055559;28;20488;-75
2023/06/22 02:19:45;;;;;;;12.70;5.70;;;;;;;19.78;81.41;96303.63;5049262;28;20068;-75
2023/06/22 02:22:13;;;;;;;12.02;4.55;;;;;;;19.89;81.06;96310.06;5049111;28;20048;-76
2023/06/22 02:24:40;;;;;;;12.77;4.47;;;;;;;19.93;81.08;96310.09;5049630;28;20041;-75
2023/06/22 02:27:07;;;;;;;11.35;5.15;;;;;;;19.92;81.62;96308.50;5049250;28;20049;-75
2023/06/22 02:29:33;;;;;;;9.15;4.32;;;;;;;20.04;80.98;96322.81;5049528;28;20041;-75
2023/06/22 02:32:00;;;;;;;7.32;4.40;;;;;;;20.07;80.90;96321.28;5049037;28;20045;-75
2023/06/22 02:34:27;;;;;;;9.98;4.63;;;;;;;20.00;81.20;96322.03;5049403;28;20037;-74
2023/06/22 02:36:53;;;;;;;7.97;4.40;;;;;;;19.99;80.99;96328.72;5049556;28;20049;-75
2023/06/22 02:39:22;;;;;;;10.15;5.07;;;;;;;20.04;80.85;96328.34;5052831;28;20053;-75
2023/06/22 02:41:49;;;;;;;11.27;5.03;;;;;;;20.06;80.75;96331.56;5053204;28;20076;-75
2023/06/22 02:44:16;;;;;;;9.38;4.13;;;;;;;20.01;80.87;96334.66;5052869;28;20052;-75
2023/06/22 02:46:42;;;;;;;21.55;5.50;;;;;;;19.95;81.31;96333.41;5053267;28;20072;-75
2023/06/22 02:49:09;;;;;;;11.48;4.85;;;;;;;19.95;81.57;96335.41;5052128;28;20048;-75
2023/06/22 02:51:35;;;;;;;10.73;4.60;;;;;;;19.92;81.63;96334.16;5053587;28;20052;-75
2023/06/22 02:54:02;;;;;;;6.55;3.55;;;;;;;20.03;81.13;96331.50;5052529;28;20045;-75
2023/06/22 02:56:30;;;;;;;8.50;3.78;;;;;;;20.08;81.31;96334.72;5045090;28;20055;-75
2023/06/22 02:59:01;;;;;;;7.28;3.90;;;;;;;20.12;80.98;96322.91;5053009;28;20562;-75
2023/06/22 03:01:27;;;;;;;7.32;3.83;;;;;;;20.14;80.98;96326.09;5052756;28;20660;-75
2023/06/22 03:03:54;;;;;;;6.05;3.17;;;;;;;20.13;80.87;96324.50;5052988;28;20565;-75
2023/06/22 03:06:23;;;;;;;9.68;3.70;;;;;;;20.08;81.17;96323.66;5044151;28;20523;-75
2023/06/22 03:08:49;;;;;;;7.45;4.07;;;;;;;20.08;81.35;96333.94;5051762;28;20037;-75
2023/06/22 03:11:16;;;;;;;7.05;3.50;;;;;;;20.07;81.67;96332.34;5051789;28;20057;-75
2023/06/22 03:13:45;;;;;;;9.02;4.45;;;;;;;20.03;81.63;96328.75;5052676;28;20041;-75
2023/06/22 03:16:12;;;;;;;10.20;4.07;;;;;;;20.03;82.23;96321.25;5052397;28;20041;-75
2023/06/22 03:18:38;;;;;;;8.18;4.20;;;;;;;19.99;82.11;96331.50;5052034;28;20401;-75
2023/06/22 03:21:05;;;;;;;22.40;4.97;;;;;;;19.98;82.58;96329.09;5052168;28;20448;-75
2023/06/22 03:23:31;;;;;;;11.45;4.50;;;;;;;19.75;83.44;96315.44;5044902;28;20041;-75
2023/06/22 03:25:58;;;;;;;7.13;4.00;;;;;;;19.79;83.49;96310.75;5052819;28;20037;-75
2023/06/22 03:28:24;;;;;;;11.05;5.18;;;;;;;19.77;84.22;96308.34;5052147;28;20056;-74
2023/06/22 03:30:52;;;;;;;11.05;5.15;;;;;;;19.61;84.99;96307.78;5052147;28;20056;-75
2023/06/22 03:33:18;;;;;;;9.88;4.55;;;;;;;19.69;84.96;96301.19;5051620;28;20048;-75
2023/06/22 03:35:45;;;;;;;13.77;4.82;;;;;;;19.76;84.81;96300.44;5052336;28;20056;-75
2023/06/22 03:38:11;;;;;;;8.95;4.72;;;;;;;19.78;84.96;96306.38;5052032;28;20443;-75
2023/06/22 03:40:38;;;;;;;12.32;5.03;;;;;;;19.77;85.07;96313.09;5052259;28;20045;-75
2023/06/22 03:43:04;;;;;;;8.73;4.55;;;;;;;19.83;85.25;96328.13;5051814;28;20480;-76
2023/06/22 03:45:31;;;;;;;7.93;4.32;;;;;;;19.85;85.16;96319.50;5052193;28;20072;-75
2023/06/22 03:47:58;;;;;;;10.07;5.10;;;;;;;19.85;85.42;96312.00;5052341;28;20051;-75
2023/06/22 03:50:25;;;;;;;6.07;4.43;;;;;;;19.85;85.43;96312.00;5049976;28;20044;-75
2023/06/22 03:52:52;;;;;;;8.20;4.10;;;;;;;19.85;85.42;96314.75;5052124;28;20056;-75
2023/06/22 03:55:20;;;;;;;8.23;4.30;;;;;;;19.86;85.40;96315.56;5051614;28;20049;-74
2023/06/22 03:57:47;;;;;;;9.32;4.65;;;;;;;19.82;85.65;96315.50;5052046;28;20550;-75
2023/06/22 04:00:15;;;;;;;15.90;5.65;;;;;;;19.83;85.71;96321.81;5051350;28;20633;-75
2023/06/22 04:02:42;;;;;;;8.75;4.70;;;;;;;19.84;85.76;96329.75;5052303;28;20127;-75
2023/06/22 04:05:10;;;;;;;7.75;4.80;;;;;;;19.83;85.67;96330.13;5051188;28;20515;-74
2023/06/22 04:07:37;;;;;;;10.30;5.13;;;;;;;19.84;85.51;96328.94;5043978;28;20151;-75
2023/06/22 04:10:04;;;;;;;8.88;5.20;;;;;;;19.87;86.15;96328.19;5051381;28;20060;-76
2023/06/22 04:12:31;;;;;;;9.60;4.60;;;;;;;19.88;86.69;96324.25;5052044;28;20131;-75
2023/06/22 04:14:57;;;;;;;10.23;4.97;;;;;;;19.86;86.26;96318.31;5051927;28;20060;-74
2023/06/22 04:17:24;;;;;;;11.00;5.10;;;;;;;19.86;86.44;96316.34;5051171;28;20052;-75
2023/06/22 04:19:51;;;;;;;10.98;5.00;;;;;;;19.89;86.25;96325.84;5059041;28;20073;-75
2023/06/22 04:22:19;;;;;;;6.85;4.30;;;;;;;19.93;86.05;96326.66;5050858;28;20048;-75
2023/06/22 04:24:45;;;;;;;6.95;4.50;;;;;;;19.92;86.31;96317.59;5051475;28;20067;-75
2023/06/22 04:27:12;;;;;;;12.13;5.63;;;;;;;19.92;86.53;96320.34;5051130;28;20045;-75
2023/06/22 04:29:48;;;;;;;16.05;5.43;;;;;;;19.88;86.00;96319.50;5051355;28;20052;-76
2023/06/22 04:32:15;;;;;;;10.43;5.13;;;;;;;19.95;86.07;96319.59;5051004;28;20144;-75
2023/06/22 04:34:41;;;;;;;10.10;4.45;;;;;;;20.02;86.10;96319.66;5051530;28;20045;-75
2023/06/22 04:37:08;;;;;;;10.18;4.82;;;;;;;20.02;85.81;96319.66;5051063;28;20072;-74
2023/06/22 04:39:36;;;;;;;9.55;5.18;;;;;;;20.07;85.92;96313.00;5051212;28;20045;-76
2023/06/22 04:42:03;;;;;;;12.10;4.65;;;;;;;20.13;85.79;96307.91;5050667;28;20132;-75
2023/06/22 04:44:29;;;;;;;11.75;6.68;;;;;;;20.08;85.78;96307.06;5051187;28;20070;-75
2023/06/22 04:46:59;;;;;;;9.35;6.07;;;;;;;20.14;85.17;96309.50;5051201;28;20053;-75
2023/06/22 04:49:32;;;;;;;11.10;5.50;;;;;;;20.07;85.35;96305.50;5050187;28;20064;-75
2023/06/22 04:51:59;;;;;;;7.93;4.75;;;;;;;20.05;84.44;96304.31;5051113;28;20664;-75
2023/06/22 04:54:25;;;;;;;15.70;5.60;;;;;;;20.07;84.38;96308.25;5050017;28;20053;-75
2023/06/22 04:56:56;;;;;;;10.63;5.15;;;;;;;19.76;85.27;96311.50;5051110;28;20120;-75
2023/06/22 04:59:28;;;;;;;15.13;5.20;;;;;;;19.68;85.74;96318.94;5050308;28;20528;-75
2023/06/22 05:01:55;;;;;;;11.32;5.75;;;;;;;19.56;85.61;96308.88;5050770;28;20567;-75
2023/06/22 05:04:23;;;;;;;12.40;5.15;;;;;;;19.72;85.94;96321.72;5050116;28;20272;-75
2023/06/22 05:06:49;;;;;;;10.20;4.63;;;;;;;19.94;85.18;96325.50;5050819;28;20040;-75
2023/06/22 05:09:17;;;;;;;10.43;5.38;;;;;;;19.87;85.18;96312.41;5049923;28;20053;-76
2023/06/22 05:11:43;;;;;;;10.93;4.65;;;;;;;20.03;85.23;96318.47;5050770;28;20075;-75
2023/06/22 05:14:11;;;;;;;13.40;4.82;;;;;;;20.12;84.61;96322.91;5050522;28;20049;-75
2023/06/22 05:16:38;;;;;;;10.45;4.88;;;;;;;20.12;84.24;96315.41;5043839;28;20048;-74
2023/06/22 05:19:05;;;;;;;11.30;4.60;;;;;;;20.25;84.07;96321.44;5048153;28;20041;-76
2023/06/22 05:21:32;;;;;;;8.60;4.47;;;;;;;20.31;84.41;96319.94;5050083;28;20107;-75
2023/06/22 05:24:00;;;;;;;13.77;5.43;;;;;;;20.32;83.97;96319.53;5050101;28;20041;-75
2023/06/22 05:26:27;;;;;;;10.73;4.30;;;;;;;20.32;83.52;96322.31;5049818;28;20049;-75
2023/06/22 05:28:54;;;;;;;9.55;4.55;;;;;;;20.41;83.39;96313.69;5048565;28;20049;-76
2023/06/22 05:31:22;;;;;;;12.35;4.82;;;;;;;20.50;83.31;96308.66;5040192;28;20053;-75
2023/06/22 05:33:49;;;;;;;9.30;4.50;;;;;;;20.51;83.26;96313.00;5050412;28;20052;-75
2023/06/22 05:36:16;;;;;;;9.25;4.80;;;;;;;20.57;82.44;96308.72;5049975;28;20045;-75
2023/06/22 05:38:43;;;;;;;11.70;4.28;;;;;;;20.68;80.93;96316.31;5050569;28;20045;-76
2023/06/22 05:41:09;;;;;;;11.23;4.18;;;;;;;20.64;80.13;96316.25;5049116;28;20073;-75
2023/06/22 05:43:36;;;;;;;12.65;4.03;;;;;;;20.82;79.83;96321.91;5050313;28;20123;-75
2023/06/22 05:46:03;;;;;;;11.73;4.93;;;;;;;20.84;79.45;96314.03;5049662;28;20041;-75
2023/06/22 05:48:31;;;;;;;11.10;4.78;;;;;;;20.76;79.79;96306.84;5049518;28;20511;-75
2023/06/22 05:50:58;;;;;;;11.55;4.65;;;;;;;20.96;78.57;96304.63;5049862;28;20041;-76
2023/06/22 05:53:24;;;;;;;11.02;4.25;;;;;;;21.02;78.86;96306.63;5050328;28;20052;-75
2023/06/22 05:55:51;;;;;;;9.55;4.60;;;;;;;21.14;79.05;96304.69;5050725;28;20044;-75
2023/06/22 05:58:17;;;;;;;9.80;4.30;;;;;;;21.10;77.52;96310.22;5049712;28;20074;-76
2023/06/22 06:00:44;;;;;;;8.75;4.20;;;;;;;21.20;76.86;96300.41;5050916;28;20045;-75
2023/06/22 06:03:11;;;;;;;7.90;4.30;;;;;;;21.28;76.91;96304.78;5050565;28;20056;-76
2023/06/22 06:05:39;;;;;;;12.27;4.72;;;;;;;21.23;76.84;96292.09;5059352;28;20431;-76
2023/06/22 06:08:06;;;;;;;9.95;3.92;;;;;;;21.36;76.28;96298.13;5058701;28;20048;-76
2023/06/22 06:10:33;;;;;;;11.02;4.10;;;;;;;21.35;76.07;96299.28;5058779;28;20045;-75
2023/06/22 06:13:01;;;;;;;9.52;4.25;;;;;;;21.37;77.29;96291.41;5058044;28;20051;-76
2023/06/22 06:15:28;;;;;;;9.20;4.00;;;;;;;21.46;74.87;96293.81;5057657;28;20037;-75
2023/06/22 06:17:55;;;;;;;8.65;4.07;;;;;;;21.48;74.12;96292.22;5053998;28;20041;-75
2023/06/22 06:20:24;;;;;;;11.73;4.30;;;;;;;21.42;74.37;96284.69;5054845;28;20052;-75
2023/06/22 06:22:52;;;;;;;8.93;4.25;;;;;;;21.52;74.82;96287.50;5056777;28;20048;-75
2023/06/22 06:25:21;;;;;;;7.47;3.60;;;;;;;21.76;74.23;96285.97;5054922;28;20045;-76
2023/06/22 06:27:49;;;;;;;10.73;4.30;;;;;;;21.78;73.55;96296.69;5056054;28;20055;-75
2023/06/22 06:30:17;;;;;;;9.57;4.10;;;;;;;21.81;72.71;96304.19;5051723;28;20053;-76
2023/06/22 06:32:45;;;;;;;5.82;3.50;;;;;;;21.98;73.04;96302.63;5050120;28;20048;-76
2023/06/22 06:35:12;;;;;;;8.32;3.50;;;;;;;22.14;73.11;96300.34;5049305;28;20053;-76
2023/06/22 06:37:41;;;;;;;9.23;4.30;;;;;;;22.04;71.08;96296.34;5049657;28;20045;-75
2023/06/22 06:40:12;;;;;;;10.70;4.28;;;;;;;22.07;70.68;96287.22;5048843;28;20037;-76
2023/06/22 06:42:41;;;;;;;8.35;3.60;;;;;;;22.16;70.30;96274.97;5049611;28;20041;-75
2023/06/22 06:45:08;;;;;;;10.05;3.60;;;;;;;22.27;70.13;96276.56;5049145;28;20063;-76
2023/06/22 06:47:35;;;;;;;7.10;3.83;;;;;;;22.32;69.61;96280.91;5049808;28;20041;-76
2023/06/22 06:50:02;;;;;;;11.63;4.72;;;;;;;22.34;68.53;96282.13;5049508;28;20049;-75
2023/06/22 06:52:28;;;;;;;12.68;3.90;;;;;;;22.49;67.64;96274.56;5049792;28;20071;-75
2023/06/22 06:54:54;;;;;;;9.85;4.10;;;;;;;22.53;66.72;96267.03;5049637;28;20053;-75
2023/06/22 06:57:23;;;;;;;9.68;4.38;;;;;;;22.60;65.82;96267.03;5049056;28;20093;-75
2023/06/22 06:59:49;;;;;;;8.10;4.70;;;;;;;22.66;66.04;96257.13;5051452;28;20095;-75
2023/06/22 07:02:16;;;;;;;27.63;6.03;;;;;;;22.76;66.70;96263.03;5052557;28;20049;-75
2023/06/22 07:04:43;;;;;;;8.43;3.95;;;;;;;22.85;65.23;96260.63;5053386;28;20108;-75
2023/06/22 07:07:09;;;;;;;12.80;4.38;;;;;;;22.95;65.75;96259.84;5051705;28;20053;-75
2023/06/22 07:09:36;;;;;;;12.38;4.28;;;;;;;22.98;64.10;96252.72;5061207;28;20059;-76
2023/06/22 07:12:02;;;;;;;13.23;3.88;;;;;;;23.06;64.90;96270.91;5053811;28;20048;-76
2023/06/22 07:14:31;;;;;;;12.50;4.55;;;;;;;23.13;63.69;96268.94;5054636;28;20049;-76
2023/06/22 07:16:57;;;;;;;11.32;4.95;;;;;;;23.17;63.14;96277.22;5054102;28;20049;-77
2023/06/22 07:19:28;;;;;;;7.03;3.70;;;;;;;23.29;64.34;96273.25;5053855;28;20040;-76
2023/06/22 07:21:54;;;;;;;14.60;4.38;;;;;;;23.37;62.91;96277.56;5054521;28;20048;-76
2023/06/22 07:24:21;;;;;;;7.45;3.90;;;;;;;23.45;62.25;96268.00;5056526;28;20045;-76
2023/06/22 07:26:49;;;;;;;10.85;4.18;;;;;;;23.52;62.94;96265.19;5058315;28;20055;-76
2023/06/22 07:29:16;;;;;;;11.57;4.50;;;;;;;23.50;61.56;96267.59;5055723;28;20131;-76
2023/06/22 07:31:44;;;;;;;12.02;4.30;;;;;;;23.59;61.54;96265.13;5053179;28;20056;-76
2023/06/22 07:34:11;;;;;;;10.40;4.22;;;;;;;23.69;62.47;96269.88;5052145;28;20048;-76
2023/06/22 07:36:37;;;;;;;8.23;3.95;;;;;;;23.81;62.93;96273.41;5052724;28;20048;-75
2023/06/22 07:39:04;;;;;;;12.32;4.57;;;;;;;23.88;61.78;96271.38;5052220;28;20064;-77
2023/06/22 07:41:30;;;;;;;9.02;4.07;;;;;;;24.03;61.67;96272.06;5052714;28;20044;-75
2023/06/22 07:43:57;;;;;;;10.18;4.45;;;;;;;24.08;60.87;96268.84;5052318;28;20385;-76
2023/06/22 07:46:23;;;;;;;11.63;4.25;;;;;;;24.18;61.23;96268.00;5051833;28;20072;-75
2023/06/22 07:48:51;;;;;;;14.07;5.10;;;;;;;24.30;60.42;96269.47;5052237;28;20052;-75
2023/06/22 07:51:18;;;;;;;10.60;4.15;;;;;;;24.41;61.21;96258.28;5052060;28;20194;-76
2023/06/22 07:53:45;;;;;;;9.45;4.45;;;;;;;24.48;60.76;96252.66;5052717;28;20052;-75
2023/06/22 07:56:12;;;;;;;9.05;4.00;;;;;;;24.51;59.42;96254.63;5051863;28;20057;-75
2023/06/22 07:58:38;;;;;;;14.93;4.55;;;;;;;24.59;59.14;96252.56;5052247;28;20065;-75
2023/06/22 08:01:05;;;;;;;12.50;4.50;;;;;;;24.70;58.87;96253.25;5051575;28;20060;-75
2023/06/22 08:03:32;;;;;;;11.70;4.70;;;;;;;24.82;58.93;96254.72;5052191;28;20106;-75
2023/06/22 08:06:00;;;;;;;11.30;4.88;;;;;;;24.98;58.98;96252.16;5052168;28;20045;-75
2023/06/22 08:08:26;;;;;;;13.23;4.88;;;;;;;25.11;58.48;96250.47;5051598;28;20540;-77
2023/06/22 08:10:53;;;;;;;13.60;4.43;;;;;;;25.28;58.08;96250.66;5051815;28;20041;-76
2023/06/22 08:13:19;;;;;;;12.60;4.45;;;;;;;25.50;57.62;96238.81;5051518;28;20053;-76
2023/06/22 08:15:45;;;;;;;15.10;5.40;;;;;;;25.50;56.15;96238.81;5051836;28;20068;-76
2023/06/22 08:18:12;;;;;;;11.18;4.38;;;;;;;25.68;56.02;96246.16;5051432;28;20056;-75
2023/06/22 08:20:38;;;;;;;12.30;4.82;;;;;;;25.72;54.00;96244.88;5051583;28;20041;-75
2023/06/22 08:23:06;;;;;;;10.02;4.45;;;;;;;25.90;54.77;96246.69;5051360;28;20045;-76
2023/06/22 08:25:34;;;;;;;10.88;4.25;;;;;;;26.05;54.07;96245.25;5051693;28;20102;-76
2023/06/22 08:28:00;;;;;;;12.68;4.68;;;;;;;26.10;54.10;96242.00;5051853;28;20064;-76
2023/06/22 08:30:27;;;;;;;11.90;4.20;;;;;;;26.20;53.66;96238.22;5051137;28;20055;-76
2023/06/22 08:32:53;;;;;;;11.00;4.72;;;;;;;26.38;53.37;96248.31;5052151;28;20503;-75
2023/06/22 08:35:20;;;;;;;12.48;4.97;;;;;;;26.55;52.65;96244.47;5051460;28;20144;-76
2023/06/22 08:37:52;;;;;;;17.30;5.15;;;;;;;26.62;52.58;96244.31;5052206;28;20037;-76
2023/06/22 08:40:20;;;;;;;14.25;4.28;;;;;;;26.62;52.69;96244.31;5051975;28;20045;-75
2023/06/22 08:42:47;;;;;;;13.55;5.10;;;;;;;26.48;52.74;96245.38;5052428;28;20045;-76
2023/06/22 08:45:15;;;;;;;11.82;4.35;;;;;;;26.43;52.48;96239.50;5051655;28;20049;-76
2023/06/22 08:47:42;;;;;;;14.30;4.80;;;;;;;26.28;53.61;96233.31;5051627;28;20512;-76
2023/06/22 08:50:09;;;;;;;15.10;5.70;;;;;;;26.40;53.65;96240.28;5050725;28;20056;-76
2023/06/22 08:52:37;;;;;;;11.60;4.50;;;;;;;26.41;53.55;96234.28;5051387;28;20075;-76
2023/06/22 08:55:04;;;;;;;12.18;4.40;;;;;;;26.69;54.32;96229.47;5050858;28;20214;-76
2023/06/22 08:57:32;;;;;;;10.77;4.32;;;;;;;26.85;53.07;96237.16;5050973;28;20047;-75
2023/06/22 08:59:59;;;;;;;12.88;4.30;;;;;;;27.01;52.53;96226.06;5050895;28;20037;-75
2023/06/22 09:02:25;;;;;;;11.70;4.53;;;;;;;27.12;51.92;96225.88;5050512;28;20102;-76
2023/06/22 09:04:55;;;;;;;12.32;4.90;;;;;;;27.15;52.41;96233.41;5050934;28;20489;-75
2023/06/22 09:07:23;;;;;;;14.93;5.13;;;;;;;27.11;52.77;96230.69;5050406;28;20126;-76
2023/06/22 09:09:50;;;;;;;12.60;4.65;;;;;;;27.07;52.91;96229.97;5050680;28;20493;-75
2023/06/22 09:12:16;;;;;;;11.75;4.85;;;;;;;26.85;52.29;96234.34;5050468;28;20049;-76
2023/06/22 09:14:44;;;;;;;10.32;4.80;;;;;;;26.81;52.53;96228.81;5050920;28;20077;-76
2023/06/22 09:17:11;;;;;;;11.00;4.60;;;;;;;26.86;53.20;96219.94;5050403;28;20060;-76
2023/06/22 09:19:37;;;;;;;13.50;4.65;;;;;;;26.90;54.42;96219.91;5050528;28;20044;-75
2023/06/22 09:22:05;;;;;;;14.80;5.15;;;;;;;27.02;54.06;96216.47;5050378;28;20128;-76
2023/06/22 09:24:32;;;;;;;11.25;4.10;;;;;;;27.12;52.73;96214.69;5050680;28;20049;-75
2023/06/22 09:26:58;;;;;;;13.55;4.43;;;;;;;27.25;53.09;96212.81;5050617;28;20476;-76
2023/06/22 09:29:25;;;;;;;13.52;5.03;;;;;;;27.33;53.38;96207.88;5050160;28;20607;-76
2023/06/22 09:31:53;;;;;;;14.88;4.32;;;;;;;27.47;54.10;96213.19;5042563;28;20044;-76
2023/06/22 09:34:20;;;;;;;11.05;4.22;;;;;;;27.66;52.77;96209.53;5049991;28;20044;-76
2023/06/22 09:36:47;;;;;;;9.50;4.47;;;;;;;27.90;52.21;96206.66;5050361;28;20048;-76
2023/06/22 09:39:13;;;;;;;10.88;5.15;;;;;;;28.06;50.47;96210.25;5050025;28;20052;-76
2023/06/22 09:41:40;;;;;;;16.23;5.15;;;;;;;28.20;50.79;96209.13;5050507;28;20044;-75
2023/06/22 09:44:06;;;;;;;11.55;4.97;;;;;;;28.19;49.17;96201.13;5049974;28;20045;-76
2023/06/22 09:46:33;;;;;;;14.82;5.55;;;;;;;28.34;49.77;96208.00;5049734;28;20044;-76
2023/06/22 09:49:00;;;;;;;12.60;5.10;;;;;;;28.51;50.13;96206.78;5050013;28;20049;-76
2023/06/22 09:51:27;;;;;;;10.57;4.70;;;;;;;28.58;49.90;96203.00;5049643;28;20048;-76
2023/06/22 09:53:54;;;;;;;11.25;4.43;;;;;;;28.60;48.81;96208.94;5050112;28;20049;-76
2023/06/22 09:56:21;;;;;;;12.43;4.55;;;;;;;28.57;48.53;96198.63;5049611;28;20053;-76
2023/06/22 09:58:50;;;;;;;13.10;5.07;;;;;;;28.54;49.60;96196.69;5050138;28;20049;-75
2023/06/22 10:01:16;;;;;;;10.15;4.72;;;;;;;28.81;50.24;96191.53;5049497;28;20504;-75
2023/06/22 10:03:43;;;;;;;14.07;5.05;;;;;;;28.98;49.61;96199.97;5049968;28;20405;-75
2023/06/22 10:06:11;;;;;;;12.35;4.90;;;;;;;28.92;49.74;96190.47;5049450;28;20052;-75
2023/06/22 10:08:37;;;;;;;11.70;4.50;;;;;;;28.94;50.17;96182.44;5049909;28;20684;-76
2023/06/22 10:11:05;;;;;;;10.93;4.70;;;;;;;28.83;48.43;96188.31;5049115;28;20519;-76
2023/06/22 10:13:31;;;;;;;12.90;4.63;;;;;;;28.83;48.81;96186.28;5049820;28;20381;-75
2023/06/22 10:15:58;;;;;;;11.32;5.45;;;;;;;28.88;49.10;96184.19;5049735;28;20040;-76
2023/06/22 10:18:24;;;;;;;14.95;5.05;;;;;;;28.97;47.95;96181.53;5049378;28;20041;-76
2023/06/22 10:20:51;;;;;;;14.95;5.10;;;;;;;29.08;48.06;96184.84;5049410;28;20045;-75
2023/06/22 10:23:20;;;;;;;13.70;4.38;;;;;;;29.30;49.90;96183.00;5049546;28;20049;-76
2023/06/22 10:25:46;;;;;;;12.77;5.00;;;;;;;29.20;48.42;96188.91;5049262;28;20044;-75
2023/06/22 10:28:13;;;;;;;10.75;4.55;;;;;;;29.21;48.69;96180.06;5049009;28;20539;-75
2023/06/22 10:30:41;;;;;;;9.10;4.93;;;;;;;29.13;47.86;96173.09;5049343;28;20516;-75
2023/06/22 10:33:07;;;;;;;13.13;5.00;;;;;;;29.30;48.37;96171.00;5049189;28;20435;-76
2023/06/22 10:35:34;;;;;;;15.63;4.85;;;;;;;29.29;47.07;96170.22;5049467;28;20049;-76
2023/06/22 10:38:00;;;;;;;25.90;6.00;;;;;;;29.34;47.06;96166.06;5049780;28;20048;-75
2023/06/22 10:40:28;;;;;;;14.27;4.40;;;;;;;29.51;48.72;96163.97;5049170;28;20045;-75
2023/06/22 10:42:55;;;;;;;12.23;4.90;;;;;;;29.68;48.02;96168.25;5049303;28;20045;-76
2023/06/22 10:45:21;;;;;;;12.38;4.78;;;;;;;29.67;47.05;96161.06;5049067;28;20053;-75
2023/06/22 10:47:48;;;;;;;10.05;4.97;;;;;;;29.79;46.81;96165.91;5049267;28;20071;-75
2023/06/22 10:50:14;;;;;;;16.55;4.78;;;;;;;29.76;45.99;96164.00;5048454;28;20053;-77
2023/06/22 10:52:42;;;;;;;11.00;4.85;;;;;;;29.86;46.46;96156.44;5049311;28;20412;-76
2023/06/22 10:55:09;;;;;;;9.88;4.30;;;;;;;30.04;47.21;96150.28;5048889;28;20132;-75
2023/06/22 10:57:38;;;;;;;13.85;4.40;;;;;;;30.24;46.43;96150.84;5049208;28;20042;-75
2023/06/22 11:00:08;;;;;;;12.88;4.65;;;;;;;30.25;45.39;96146.78;5052555;28;20154;-75
2023/06/22 11:02:35;;;;;;;14.15;5.15;;;;;;;30.24;45.56;96141.63;5053323;28;20068;-77
2023/06/22 11:05:01;;;;;;;9.65;4.97;;;;;;;30.31;45.64;96147.00;5053220;28;20041;-77
2023/06/22 11:07:28;;;;;;;10.88;4.70;;;;;;;30.38;44.77;96141.13;5052835;28;20048;-76
2023/06/22 11:09:55;;;;;;;12.18;5.68;;;;;;;30.54;45.82;96138.16;5052930;28;20064;-76
2023/06/22 11:12:21;;;;;;;11.30;5.30;;;;;;;30.63;45.59;96140.25;5052562;28;20392;-77
2023/06/22 11:14:51;;;;;;;10.52;4.78;;;;;;;30.71;45.71;96130.38;5053082;28;20045;-76
2023/06/22 11:17:17;;;;;;;12.98;5.05;;;;;;;30.64;44.87;96127.78;5052463;28;20049;-76
2023/06/22 11:19:45;;;;;;;16.77;5.25;;;;;;;30.71;43.72;96124.75;5052736;28;20045;-76
2023/06/22 11:22:11;;;;;;;13.75;4.90;;;;;;;30.83;44.11;96109.84;5052534;28;20060;-77
2023/06/22 11:24:37;;;;;;;10.38;4.60;;;;;;;30.93;45.62;96125.53;5052776;28;20049;-77
2023/06/22 11:27:04;;;;;;;12.60;5.15;;;;;;;30.91;43.15;96122.41;5052284;28;20483;-77
2023/06/22 11:29:31;;;;;;;11.77;5.20;;;;;;;30.91;43.13;96119.59;5052517;28;20041;-77